Time;durP1;ratioP1;P1;durP2;ratioP2;P2;SDS_P1;SDS_P2;PMS_P1;PMS_P2;Temp;Humidity;BMP_temperature;BMP_pressure;BME280_temperature;BME280_humidity;BME280_pressure;Samples;Min_cycle;Max_cycle;Signal;HPM_P1;HPM_P2
2020/12/15 00:01:21;;;;;;;;;;;;;;;;;;;;;
2020/12/15 00:04:00;;;;;;;7.37;4.00;;;8.10;60.40;;;;;;5880881;24;20943;-84
2020/12/15 00:06:46;;;;;;;;;;;;;;;;;;;;;
2020/12/15 00:09:19;;;;;;;10.30;4.47;;;8.00;69.50;;;;;;6076331;23;20971;-83
2020/12/15 00:21:28;;;;;;;9.60;6.40;;;7.50;97.10;;;;;;5941710;24;20985;-84
2020/12/15 00:27:07;;;;;;;9.50;8.57;;;7.40;99.90;;;;;;5897323;24;20451;-84
2020/12/15 00:32:37;;;;;;;15.87;14.57;;;7.30;99.90;;;;;;6065274;23;20543;-84
2020/12/15 00:35:19;;;;;;;16.50;15.23;;;7.30;99.90;;;;;;6066455;23;20764;-84
2020/12/15 00:37:58;;;;;;;;;;;;;;;;;;;;;
2020/12/15 00:41:10;;;;;;;;;;;;;;;;;;;;;
2020/12/15 00:43:46;;;;;;;20.73;19.43;;;7.20;99.90;;;;;;6047131;23;20900;-84
2020/12/15 00:47:01;;;;;;;21.97;20.30;;;7.20;99.90;;;;;;6196442;23;20515;-84
2020/12/15 00:49:49;;;;;;;;;;;;;;;;;;;;;
2020/12/15 00:52:46;;;;;;;26.40;24.70;;;7.20;99.90;;;;;;6185756;23;20468;-84
2020/12/15 00:55:51;;;;;;;;;;;;;;;;;;;;;
2020/12/15 01:01:52;;;;;;;38.77;36.60;;;7.20;99.90;;;;;;6036348;23;20421;-84
2020/12/15 01:04:30;;;;;;;47.17;44.77;;;7.20;99.90;;;;;;5907099;24;20428;-84
2020/12/15 01:07:47;;;;;;;;;;;;;;;;;;;;;
2020/12/15 01:44:11;;;;;;;131.60;126.20;;;7.10;99.90;;;;;;5901244;23;20421;-84
2020/12/15 01:59:56;;;;;;;126.17;120.80;;;7.10;99.90;;;;;;5873793;24;20488;-84
2020/12/15 02:02:31;;;;;;;119.33;113.83;;;7.10;99.90;;;;;;6018235;23;20411;-84
2020/12/15 02:05:30;;;;;;;109.80;105.10;;;7.20;99.90;;;;;;6170986;23;20828;-84
2020/12/15 02:08:16;;;;;;;119.90;114.80;;;7.10;99.90;;;;;;6183336;23;20503;-84
2020/12/15 02:11:03;;;;;;;;;;;;;;;;;;;;;
2020/12/15 02:13:40;;;;;;;;;;;;;;;;;;;;;
2020/12/15 02:16:36;;;;;;;142.23;136.50;;;7.10;99.90;;;;;;6119038;23;20488;-84
2020/12/15 02:19:17;;;;;;;151.50;144.97;;;7.10;99.90;;;;;;6166578;23;20952;-84
2020/12/15 02:22:29;;;;;;;;;;;;;;;;;;;;;
2020/12/15 02:25:10;;;;;;;150.43;144.43;;;7.10;99.90;;;;;;6122726;23;20423;-84
2020/12/15 02:27:39;;;;;;;176.40;169.10;;;7.10;99.90;;;;;;6184092;23;20968;-84
2020/12/15 02:30:29;;;;;;;;;;;;;;;;;;;;;
2020/12/15 02:33:09;;;;;;;176.57;168.97;;;7.00;99.90;;;;;;6158547;23;20447;-84
2020/12/15 02:39:18;;;;;;;193.60;185.43;;;7.10;99.90;;;;;;6195450;23;20544;-84
2020/12/15 02:42:04;;;;;;;187.40;179.50;;;7.10;99.90;;;;;;6150456;23;20917;-84
2020/12/15 02:48:00;;;;;;;191.67;183.47;;;7.00;99.90;;;;;;6199829;22;20536;-84
2020/12/15 02:50:51;;;;;;;;;;;;;;;;;;;;;
2020/12/15 02:53:37;;;;;;;;;;;;;;;;;;;;;
2020/12/15 02:56:19;;;;;;;;;;;;;;;;;;;;;
2020/12/15 02:58:57;;;;;;;212.63;203.73;;;7.00;99.90;;;;;;6275622;22;20406;-84
2020/12/15 03:01:42;;;;;;;213.80;204.80;;;7.00;99.90;;;;;;6277597;22;20727;-84
2020/12/15 03:08:04;;;;;;;;;;;;;;;;;;;;;
2020/12/15 03:10:42;;;;;;;216.83;207.37;;;7.00;99.90;;;;;;6105365;23;20407;-83
2020/12/15 03:13:21;;;;;;;226.60;217.13;;;7.00;99.90;;;;;;6238081;22;20433;-84
2020/12/15 03:16:00;;;;;;;232.20;222.30;;;7.00;99.90;;;;;;6288609;22;20402;-84
2020/12/15 03:18:57;;;;;;;;;;;;;;;;;;;;;
2020/12/15 03:21:56;;;;;;;234.90;224.30;;;6.80;99.90;;;;;;6155295;23;20415;-84
2020/12/15 03:25:04;;;;;;;;;;;;;;;;;;;;;
2020/12/15 03:31:19;;;;;;;241.47;231.10;;;6.90;99.90;;;;;;6110472;23;20416;-84
2020/12/15 03:34:25;;;;;;;;;;;;;;;;;;;;;
2020/12/15 03:37:07;;;;;;;252.17;241.27;;;7.00;99.90;;;;;;5990577;23;20419;-84
2020/12/15 03:39:56;;;;;;;240.53;230.33;;;7.00;99.90;;;;;;6021147;23;20964;-84
2020/12/15 03:46:01;;;;;;;241.53;231.00;;;7.10;99.90;;;;;;6008286;23;20457;-84
2020/12/15 03:51:28;;;;;;;243.60;232.97;;;7.20;99.90;;;;;;6123036;23;20433;-83
2020/12/15 03:54:03;;;;;;;242.27;230.80;;;7.10;99.90;;;;;;6125096;23;20409;-83
2020/12/15 03:56:32;;;;;;;241.97;231.60;;;7.10;99.90;;;;;;6123350;23;20406;-83
2020/12/15 03:59:00;;;;;;;240.00;229.60;;;7.10;99.90;;;;;;6125175;23;20395;-83
2020/12/15 04:04:08;;;;;;;236.57;226.17;;;7.20;99.90;;;;;;6215330;23;20412;-83
2020/12/15 04:06:36;;;;;;;231.87;220.93;;;7.10;99.90;;;;;;6216924;23;20484;-83
2020/12/15 04:09:05;;;;;;;225.47;215.40;;;7.10;99.90;;;;;;6217344;23;20857;-83
2020/12/15 04:11:32;;;;;;;226.60;216.57;;;7.10;99.90;;;;;;6215166;23;20483;-83
2020/12/15 04:14:00;;;;;;;221.53;211.57;;;7.10;99.90;;;;;;6217197;23;20447;-82
2020/12/15 04:16:28;;;;;;;216.93;206.70;;;7.10;99.90;;;;;;6226667;23;20495;-82
2020/12/15 04:18:56;;;;;;;219.97;209.73;;;7.10;99.90;;;;;;6226663;23;20458;-83
2020/12/15 04:21:22;;;;;;;221.83;211.83;;;7.10;99.90;;;;;;6216968;23;20401;-83
2020/12/15 04:23:50;;;;;;;211.43;201.67;;;7.00;99.90;;;;;;6216876;23;20400;-83
2020/12/15 04:26:17;;;;;;;219.20;209.13;;;7.10;99.90;;;;;;6225330;23;20400;-83
2020/12/15 04:28:49;;;;;;;222.07;212.00;;;7.10;99.90;;;;;;6219094;23;20868;-82
2020/12/15 04:31:16;;;;;;;218.43;208.73;;;7.10;99.90;;;;;;6216941;23;20418;-83
2020/12/15 04:33:42;;;;;;;227.93;217.30;;;7.00;99.90;;;;;;6226550;23;20432;-83
2020/12/15 04:36:09;;;;;;;225.77;215.27;;;7.00;99.90;;;;;;6216786;23;20424;-82
2020/12/15 04:38:39;;;;;;;226.00;215.30;;;7.10;99.90;;;;;;6218341;23;20405;-84
2020/12/15 04:41:09;;;;;;;222.63;212.50;;;7.10;99.90;;;;;;6215350;23;20756;-83
2020/12/15 04:43:39;;;;;;;225.10;214.70;;;7.00;99.90;;;;;;6226851;23;20824;-83
2020/12/15 04:46:11;;;;;;;223.93;213.90;;;7.00;99.90;;;;;;6226869;23;20491;-83
2020/12/15 04:48:48;;;;;;;229.10;218.20;;;7.00;99.90;;;;;;6244104;23;20439;-83
2020/12/15 04:51:27;;;;;;;223.80;213.60;;;7.00;99.90;;;;;;6247111;23;20403;-83
2020/12/15 04:53:57;;;;;;;223.33;213.23;;;7.00;99.90;;;;;;6257261;23;20541;-83
2020/12/15 04:56:30;;;;;;;225.77;215.27;;;7.10;99.90;;;;;;6245195;23;20945;-82
2020/12/15 04:58:58;;;;;;;220.40;209.80;;;7.10;99.90;;;;;;6257008;23;20946;-83
2020/12/15 05:01:25;;;;;;;212.47;202.70;;;7.10;99.90;;;;;;6256559;23;20442;-83
2020/12/15 05:03:54;;;;;;;223.50;213.07;;;7.20;99.90;;;;;;6246960;23;20872;-83
2020/12/15 05:06:28;;;;;;;218.83;208.53;;;7.10;99.90;;;;;;6256900;23;20736;-83
2020/12/15 05:09:01;;;;;;;219.23;209.27;;;7.10;99.90;;;;;;6247054;23;20411;-83
2020/12/15 05:11:27;;;;;;;219.43;209.10;;;7.20;99.90;;;;;;6244982;23;20400;-83
2020/12/15 05:13:54;;;;;;;220.47;210.27;;;7.10;99.90;;;;;;6246193;23;20435;-83
2020/12/15 05:16:22;;;;;;;216.00;205.27;;;7.20;99.90;;;;;;6246956;23;20396;-83
2020/12/15 05:19:03;;;;;;;;;;;;;;;;;;;;;
2020/12/15 05:21:39;;;;;;;223.90;213.47;;;7.10;99.90;;;;;;6157517;23;20415;-85
2020/12/15 05:46:09;;;;;;;;;;;;;;;;;;;;;
2020/12/15 05:49:19;;;;;;;;;;;;;;;;;;;;;
2020/12/15 06:41:14;;;;;;;253.93;241.20;;;7.60;99.90;;;;;;6001981;23;20424;-84
2020/12/15 06:44:30;;;;;;;245.03;233.30;;;7.60;99.90;;;;;;6074833;23;20451;-84
2020/12/15 06:47:36;;;;;;;248.80;237.00;;;7.50;99.90;;;;;;6074854;23;20471;-84
2020/12/15 06:50:36;;;;;;;;;;;;;;;;;;;;;
2020/12/15 06:53:23;;;;;;;249.53;237.47;;;7.60;99.90;;;;;;6027871;23;20448;-84
2020/12/15 06:56:38;;;;;;;;;;;;;;;;;;;;;
2020/12/15 06:59:17;;;;;;;254.63;242.33;;;7.70;99.90;;;;;;6025229;23;20421;-84
2020/12/15 07:02:10;;;;;;;237.10;225.00;;;7.60;99.90;;;;;;6196066;23;20421;-84
2020/12/15 07:05:16;;;;;;;253.27;241.13;;;7.70;99.90;;;;;;6065091;23;20413;-83
2020/12/15 07:07:49;;;;;;;242.10;230.77;;;7.70;99.90;;;;;;6191284;23;20411;-83
2020/12/15 07:10:19;;;;;;;246.10;234.30;;;7.70;99.90;;;;;;6215288;23;20399;-83
2020/12/15 07:12:52;;;;;;;246.07;234.37;;;7.70;99.90;;;;;;6213455;23;20511;-83
2020/12/15 07:15:23;;;;;;;250.90;238.40;;;7.70;99.90;;;;;;6225724;23;20428;-83
2020/12/15 07:17:52;;;;;;;254.10;241.70;;;7.70;99.90;;;;;;6215591;23;20436;-84
2020/12/15 07:20:24;;;;;;;251.10;239.07;;;7.80;99.90;;;;;;6215234;23;20949;-84
2020/12/15 07:23:03;;;;;;;252.93;240.17;;;7.80;99.90;;;;;;6215170;23;20442;-84
2020/12/15 07:25:50;;;;;;;;;;;;;;;;;;;;;
2020/12/15 07:28:24;;;;;;;257.90;244.63;;;7.80;99.90;;;;;;6148309;23;20404;-84
2020/12/15 07:30:55;;;;;;;256.70;244.40;;;7.80;99.90;;;;;;6215453;23;20400;-85
2020/12/15 07:34:05;;;;;;;;;;;;;;;;;;;;;
2020/12/15 07:40:28;;;;;;;258.60;245.90;;;7.80;99.90;;;;;;6211205;23;20737;-84
2020/12/15 07:43:40;;;;;;;;;;;;;;;;;;;;;
2020/12/15 07:46:30;;;;;;;263.00;250.60;;;7.80;99.90;;;;;;6093089;23;20944;-84
2020/12/15 07:51:54;;;;;;;269.77;256.47;;;7.90;99.90;;;;;;6103547;23;20419;-80
2020/12/15 07:57:48;;;;;;;226.75;214.35;;;7.90;99.90;;;;;;6118514;23;20751;-84
2020/12/15 08:00:46;;;;;;;247.97;234.10;;;8.00;99.90;;;;;;6134809;23;20159;-84
2020/12/15 08:03:23;;;;;;;259.37;246.10;;;7.90;99.90;;;;;;6096654;23;20442;-84
2020/12/15 08:06:44;;;;;;;;;;;;;;;;;;;;;
2020/12/15 08:09:36;;;;;;;;;;;;;;;;;;;;;
2020/12/15 08:12:16;;;;;;;266.50;251.80;;;7.90;99.90;;;;;;6044833;23;20414;-84
2020/12/15 08:14:50;;;;;;;267.30;253.97;;;8.00;99.90;;;;;;6219194;23;20465;-83
2020/12/15 08:17:31;;;;;;;259.97;246.50;;;7.90;99.90;;;;;;6217132;23;20438;-84
2020/12/15 08:20:06;;;;;;;260.30;246.57;;;8.00;99.90;;;;;;6226999;23;20451;-83
2020/12/15 08:22:39;;;;;;;261.00;247.60;;;8.00;99.90;;;;;;6227168;23;20481;-83
2020/12/15 08:25:10;;;;;;;260.47;246.87;;;8.10;99.90;;;;;;6217049;23;20404;-83
2020/12/15 08:27:43;;;;;;;257.37;244.13;;;8.00;99.90;;;;;;6230623;23;20458;-83
2020/12/15 08:30:14;;;;;;;255.30;242.00;;;8.10;99.90;;;;;;6226719;23;20412;-83
2020/12/15 08:32:46;;;;;;;259.80;246.33;;;8.20;99.90;;;;;;6216823;23;20439;-83
2020/12/15 08:35:21;;;;;;;257.10;243.73;;;8.00;99.90;;;;;;6216948;23;20458;-83
2020/12/15 08:37:58;;;;;;;248.03;235.03;;;8.10;99.90;;;;;;6217195;23;20494;-83
2020/12/15 08:40:37;;;;;;;256.03;242.80;;;8.20;99.90;;;;;;6226444;23;20407;-83
2020/12/15 08:43:04;;;;;;;252.00;239.23;;;8.20;99.90;;;;;;6216922;23;20474;-83
2020/12/15 08:45:33;;;;;;;255.27;241.90;;;8.20;99.90;;;;;;6216884;23;20404;-83
2020/12/15 08:48:22;;;;;;;260.00;246.97;;;8.20;99.90;;;;;;6234920;23;20942;-84
2020/12/15 08:50:50;;;;;;;260.30;246.80;;;8.20;99.90;;;;;;6239139;23;20490;-83
2020/12/15 08:53:22;;;;;;;264.00;250.80;;;8.20;99.90;;;;;;6246928;23;20519;-83
2020/12/15 08:55:56;;;;;;;263.83;249.97;;;8.20;99.90;;;;;;6245682;23;20441;-83
2020/12/15 08:58:30;;;;;;;269.40;255.60;;;8.30;99.90;;;;;;6247067;23;20403;-85
2020/12/15 09:01:16;;;;;;;;;;;;;;;;;;;;;
2020/12/15 09:04:07;;;;;;;;;;;;;;;;;;;;;
2020/12/15 09:06:50;;;;;;;;;;;;;;;;;;;;;
2020/12/15 09:09:34;;;;;;;;;;;;;;;;;;;;;
2020/12/15 09:12:23;;;;;;;272.17;257.47;;;8.40;99.90;;;;;;6152629;23;20403;-84
2020/12/15 09:15:02;;;;;;;300.30;282.80;;;8.50;99.90;;;;;;6246867;23;20406;-84
2020/12/15 09:17:29;;;;;;;266.40;247.77;;;8.50;99.90;;;;;;6246684;22;20727;-83
2020/12/15 09:19:56;;;;;;;269.77;254.90;;;8.70;99.90;;;;;;6246810;23;20431;-83
2020/12/15 09:22:40;;;;;;;269.00;254.30;;;8.60;99.90;;;;;;6246762;23;20458;-84
2020/12/15 09:25:44;;;;;;;268.07;251.83;;;8.60;99.90;;;;;;6256512;23;20496;-83
2020/12/15 09:28:33;;;;;;;269.00;253.40;;;8.60;99.90;;;;;;6256757;23;20411;-84
2020/12/15 09:31:03;;;;;;;275.67;253.13;;;8.60;99.90;;;;;;6256455;23;20407;-84
2020/12/15 09:33:54;;;;;;;;;;;;;;;;;;;;;
2020/12/15 09:36:38;;;;;;;265.80;250.63;;;8.70;99.90;;;;;;6245834;23;20408;-83
2020/12/15 09:42:26;;;;;;;;;;;;;;;;;;;;;
2020/12/15 09:48:16;;;;;;;262.13;246.73;;;8.70;99.90;;;;;;6242268;23;20457;-84
2020/12/15 09:50:53;;;;;;;;;;;;;;;;;;;;;
2020/12/15 09:53:22;;;;;;;261.37;246.07;;;8.70;99.90;;;;;;6243910;23;20442;-84
2020/12/15 09:55:53;;;;;;;260.40;245.10;;;8.70;99.90;;;;;;6243245;23;20473;-84
2020/12/15 09:58:23;;;;;;;265.87;250.10;;;8.80;99.90;;;;;;6244968;23;20396;-83
2020/12/15 10:00:53;;;;;;;258.47;244.57;;;8.80;99.90;;;;;;6256173;23;20412;-83
2020/12/15 10:03:39;;;;;;;255.47;239.57;;;8.70;99.90;;;;;;6246364;23;20408;-84
2020/12/15 10:06:22;;;;;;;254.30;239.00;;;8.70;99.90;;;;;;6212230;23;20407;-86
2020/12/15 10:08:51;;;;;;;247.53;233.00;;;8.70;99.90;;;;;;6256619;23;20421;-84
2020/12/15 10:11:33;;;;;;;247.87;233.40;;;8.70;99.90;;;;;;6254677;23;20494;-84
2020/12/15 10:14:34;;;;;;;;;;;;;;;;;;;;;
2020/12/15 10:17:07;;;;;;;251.00;236.60;;;8.70;99.90;;;;;;6220429;22;20953;-84
2020/12/15 10:19:43;;;;;;;250.90;237.10;;;8.70;99.90;;;;;;6256069;23;20427;-84
2020/12/15 10:22:40;;;;;;;243.93;229.97;;;8.80;99.90;;;;;;6256578;23;20407;-84
2020/12/15 10:25:44;;;;;;;250.07;235.80;;;8.90;99.90;;;;;;6065386;23;21014;-84
2020/12/15 10:31:59;;;;;;;249.77;235.37;;;8.90;99.90;;;;;;6104175;23;20818;-84
2020/12/15 10:35:28;;;;;;;;;;;;;;;;;;;;;
2020/12/15 10:38:07;;;;;;;;;;;;;;;;;;;;;
2020/12/15 10:43:20;;;;;;;252.90;238.80;;;9.00;99.90;;;;;;6138775;23;20410;-84
2020/12/15 10:46:42;;;;;;;;;;;;;;;;;;;;;
2020/12/15 10:49:28;;;;;;;250.87;236.10;;;9.10;99.90;;;;;;5982590;23;20446;-84
2020/12/15 10:52:14;;;;;;;;;;;;;;;;;;;;;
2020/12/15 10:54:50;;;;;;;236.37;223.03;;;9.20;99.90;;;;;;6080413;23;20476;-83
2020/12/15 10:57:27;;;;;;;230.83;217.77;;;9.30;99.90;;;;;;6151287;23;20425;-83
2020/12/15 11:03:10;;;;;;;224.00;211.50;;;9.30;99.90;;;;;;6160778;23;20416;-84
2020/12/15 11:05:45;;;;;;;219.80;206.70;;;9.20;99.90;;;;;;6199267;23;20411;-83
2020/12/15 11:08:47;;;;;;;222.33;207.90;;;9.10;99.90;;;;;;6256188;23;20410;-84
2020/12/15 11:27:18;;;;;;;;;;;;;;;;;;;;;
2020/12/15 11:30:12;;;;;;;216.20;202.80;;;9.00;99.90;;;;;;5975119;23;20413;-85
2020/12/15 11:33:00;;;;;;;;;;;;;;;;;;;;;
2020/12/15 11:35:39;;;;;;;;;;;;;;;;;;;;;
2020/12/15 11:38:45;;;;;;;;;;;;;;;;;;;;;
2020/12/15 11:41:13;;;;;;;229.37;215.43;;;8.90;99.90;;;;;;5904150;24;20421;-84
2020/12/15 11:44:06;;;;;;;;;;;;;;;;;;;;;
2020/12/15 11:46:32;;;;;;;226.80;210.90;;;8.90;99.90;;;;;;6230204;23;20461;-82
2020/12/15 11:48:58;;;;;;;231.17;216.37;;;8.90;99.90;;;;;;6247179;23;20435;-83
2020/12/15 11:51:25;;;;;;;224.87;211.10;;;8.80;99.90;;;;;;6247590;23;20495;-83
2020/12/15 11:53:51;;;;;;;239.30;223.80;;;8.90;99.90;;;;;;6247267;23;20461;-83
2020/12/15 11:56:22;;;;;;;233.80;219.70;;;8.90;99.90;;;;;;6246020;23;20406;-83
2020/12/15 11:58:49;;;;;;;230.20;216.27;;;8.90;99.90;;;;;;6247304;23;20402;-82
2020/12/15 12:01:21;;;;;;;231.07;216.57;;;8.80;99.90;;;;;;6257460;23;20549;-83
2020/12/15 12:03:48;;;;;;;241.47;225.97;;;8.80;99.90;;;;;;6247468;23;20479;-83
2020/12/15 12:06:14;;;;;;;243.63;228.93;;;9.00;99.90;;;;;;6257376;23;20407;-83
2020/12/15 12:08:41;;;;;;;257.70;242.60;;;8.90;99.90;;;;;;6257712;23;20403;-83
2020/12/15 12:11:09;;;;;;;259.63;243.60;;;9.00;99.90;;;;;;6245885;23;20403;-82
2020/12/15 12:13:37;;;;;;;258.70;243.30;;;9.10;99.90;;;;;;6247421;23;20431;-83
2020/12/15 12:16:05;;;;;;;252.77;238.07;;;9.10;99.90;;;;;;6257283;22;20759;-83
2020/12/15 12:18:31;;;;;;;251.53;236.50;;;9.10;99.90;;;;;;6251648;23;20457;-82
2020/12/15 12:20:58;;;;;;;249.53;234.03;;;9.00;99.90;;;;;;6247445;23;20398;-82
2020/12/15 12:23:24;;;;;;;254.97;238.10;;;9.10;99.90;;;;;;6247378;23;20395;-83
2020/12/15 12:25:51;;;;;;;249.23;234.47;;;9.10;99.90;;;;;;6245817;23;20431;-83
2020/12/15 12:28:17;;;;;;;245.57;230.87;;;9.10;99.90;;;;;;6250496;23;20427;-83
2020/12/15 12:30:43;;;;;;;251.33;236.00;;;9.10;99.90;;;;;;6246922;23;20438;-83
2020/12/15 12:33:14;;;;;;;248.00;233.33;;;9.10;99.90;;;;;;6247156;23;20462;-83
2020/12/15 12:35:40;;;;;;;242.17;226.20;;;9.10;99.90;;;;;;6246929;23;21016;-83
2020/12/15 12:38:06;;;;;;;246.70;232.20;;;9.00;99.90;;;;;;6246556;23;20399;-83
2020/12/15 12:40:33;;;;;;;246.23;231.60;;;9.10;99.90;;;;;;6247066;23;20395;-82
2020/12/15 12:43:02;;;;;;;236.37;222.20;;;9.10;99.90;;;;;;6245380;23;20887;-83
2020/12/15 12:45:28;;;;;;;245.47;230.07;;;9.10;99.90;;;;;;6247239;23;20495;-84
2020/12/15 12:47:55;;;;;;;244.97;228.87;;;9.10;99.90;;;;;;6257278;23;20485;-83
2020/12/15 12:50:23;;;;;;;241.83;226.73;;;9.10;99.90;;;;;;6247212;23;20419;-83
2020/12/15 12:52:49;;;;;;;246.47;230.20;;;9.00;99.90;;;;;;6256596;23;20499;-83
2020/12/15 12:55:16;;;;;;;246.57;230.87;;;9.00;99.90;;;;;;6247134;23;20399;-83
2020/12/15 12:57:42;;;;;;;247.07;232.13;;;9.00;99.90;;;;;;6255927;23;20415;-83
2020/12/15 13:00:14;;;;;;;254.23;237.33;;;9.00;99.90;;;;;;6246813;23;20474;-83
2020/12/15 13:02:41;;;;;;;253.27;237.77;;;9.10;99.90;;;;;;6247020;23;20404;-82
2020/12/15 13:05:08;;;;;;;248.03;230.97;;;9.00;99.90;;;;;;6257187;23;20438;-82
2020/12/15 13:07:35;;;;;;;247.63;233.47;;;9.00;99.90;;;;;;6246583;23;20490;-82
2020/12/15 13:10:03;;;;;;;247.13;233.50;;;9.10;99.90;;;;;;6246944;23;20400;-83
2020/12/15 13:12:29;;;;;;;262.57;244.33;;;9.10;99.90;;;;;;6241935;23;20709;-83
2020/12/15 13:15:03;;;;;;;248.00;232.10;;;9.00;99.90;;;;;;6244825;22;20850;-83
2020/12/15 13:17:35;;;;;;;262.47;245.87;;;9.10;99.90;;;;;;6245071;23;20449;-83
2020/12/15 13:20:01;;;;;;;244.60;230.87;;;9.00;99.90;;;;;;6244819;23;20403;-82
2020/12/15 13:22:29;;;;;;;258.83;242.97;;;9.10;99.90;;;;;;6255106;23;20936;-83
2020/12/15 13:24:58;;;;;;;261.70;247.10;;;9.10;99.90;;;;;;6244574;23;20408;-82
2020/12/15 13:27:24;;;;;;;252.97;238.87;;;9.10;99.90;;;;;;6253590;22;20482;-82
2020/12/15 13:29:50;;;;;;;260.73;246.00;;;9.10;99.90;;;;;;6244664;23;20723;-82
2020/12/15 13:32:17;;;;;;;261.67;245.13;;;9.10;99.90;;;;;;6254600;23;20891;-82
2020/12/15 13:34:44;;;;;;;247.37;233.67;;;9.20;99.90;;;;;;6244557;23;20546;-82
2020/12/15 13:37:11;;;;;;;246.33;234.23;;;9.10;99.90;;;;;;6245113;23;20403;-83
2020/12/15 13:39:37;;;;;;;254.33;241.70;;;9.20;99.90;;;;;;6244923;23;20478;-82
2020/12/15 13:42:05;;;;;;;237.60;226.60;;;9.20;99.90;;;;;;6243467;23;20743;-82
2020/12/15 13:44:32;;;;;;;251.07;239.27;;;9.30;99.90;;;;;;6254965;23;20490;-83
2020/12/15 13:46:59;;;;;;;252.60;240.53;;;9.30;99.90;;;;;;6254351;23;20426;-82
2020/12/15 13:49:25;;;;;;;252.67;240.17;;;9.30;99.90;;;;;;6244762;23;20910;-83
2020/12/15 13:51:51;;;;;;;248.00;236.60;;;9.40;99.90;;;;;;6244458;23;20446;-83
2020/12/15 13:54:19;;;;;;;249.03;237.80;;;9.40;99.90;;;;;;6244648;23;20436;-82
2020/12/15 13:56:47;;;;;;;246.53;235.63;;;9.50;99.90;;;;;;6253186;23;20470;-82
2020/12/15 13:59:14;;;;;;;247.77;235.83;;;9.50;99.90;;;;;;6242279;23;20453;-83
2020/12/15 14:01:43;;;;;;;250.37;237.67;;;9.50;99.90;;;;;;6243884;23;20407;-82
2020/12/15 14:04:10;;;;;;;252.17;239.57;;;9.50;99.90;;;;;;6244266;23;20781;-82
2020/12/15 14:06:36;;;;;;;243.57;232.13;;;9.60;99.90;;;;;;6254447;23;20403;-82
2020/12/15 14:09:03;;;;;;;252.33;239.60;;;9.50;99.90;;;;;;6244414;23;20403;-82
2020/12/15 14:11:30;;;;;;;256.17;243.60;;;9.60;99.90;;;;;;6243370;23;20470;-82
2020/12/15 14:13:56;;;;;;;259.07;246.93;;;9.70;99.90;;;;;;6254319;23;20934;-82
2020/12/15 14:16:26;;;;;;;248.13;235.93;;;9.60;99.90;;;;;;6245989;23;20482;-82
2020/12/15 14:18:52;;;;;;;242.60;231.20;;;9.70;99.90;;;;;;6256339;23;20956;-82
2020/12/15 14:21:19;;;;;;;247.90;235.37;;;9.60;99.90;;;;;;6246343;23;20446;-82
2020/12/15 14:23:45;;;;;;;248.47;236.40;;;9.60;99.90;;;;;;6246233;23;20400;-83
2020/12/15 14:26:12;;;;;;;239.90;228.33;;;9.60;99.90;;;;;;6244161;22;20947;-82
2020/12/15 14:28:39;;;;;;;247.37;235.67;;;9.50;99.90;;;;;;6246101;23;20426;-82
2020/12/15 14:31:06;;;;;;;243.63;231.37;;;9.50;99.90;;;;;;6245798;23;20404;-82
2020/12/15 14:33:33;;;;;;;249.53;237.13;;;9.60;99.90;;;;;;6246023;23;20481;-82
2020/12/15 14:36:00;;;;;;;246.47;235.07;;;9.60;99.90;;;;;;6246190;23;20399;-83
2020/12/15 14:38:27;;;;;;;259.87;247.67;;;9.70;99.90;;;;;;6246143;23;20443;-82
2020/12/15 14:40:53;;;;;;;255.67;243.73;;;9.60;99.90;;;;;;6244798;23;20730;-82
2020/12/15 14:43:20;;;;;;;260.00;247.33;;;9.70;99.90;;;;;;6245957;23;20488;-82
2020/12/15 14:45:46;;;;;;;258.93;246.87;;;9.70;99.90;;;;;;6245708;23;20534;-82
2020/12/15 14:48:14;;;;;;;251.67;239.57;;;9.70;99.90;;;;;;6245621;23;20435;-82
2020/12/15 14:50:42;;;;;;;257.53;244.70;;;9.70;99.90;;;;;;6245623;23;20542;-83
2020/12/15 14:53:08;;;;;;;254.07;242.37;;;9.70;99.90;;;;;;6245988;23;20462;-83
2020/12/15 14:55:34;;;;;;;250.77;238.53;;;9.70;99.90;;;;;;6246079;23;20407;-83
2020/12/15 14:58:01;;;;;;;253.70;240.90;;;9.70;99.90;;;;;;6244383;23;20493;-82
2020/12/15 15:00:27;;;;;;;243.20;232.00;;;9.60;99.90;;;;;;6245956;23;20430;-83
2020/12/15 15:02:53;;;;;;;247.90;236.30;;;9.60;99.90;;;;;;6245764;23;20400;-83
2020/12/15 15:05:20;;;;;;;247.67;236.57;;;9.60;99.90;;;;;;6245968;23;20427;-82
2020/12/15 15:07:51;;;;;;;252.43;240.97;;;9.60;99.90;;;;;;6245963;23;20407;-82
2020/12/15 15:10:18;;;;;;;245.10;233.97;;;9.60;99.90;;;;;;6245964;23;20422;-83
2020/12/15 15:12:44;;;;;;;241.77;230.20;;;9.50;99.90;;;;;;6254283;23;20729;-83
2020/12/15 15:15:13;;;;;;;244.17;232.07;;;9.40;99.90;;;;;;6255619;23;20411;-83
2020/12/15 15:17:40;;;;;;;247.00;235.97;;;9.40;99.90;;;;;;6245578;23;20477;-83
2020/12/15 15:20:06;;;;;;;251.40;239.33;;;9.50;99.90;;;;;;6255723;23;20403;-82
2020/12/15 15:22:32;;;;;;;247.43;235.90;;;9.40;99.90;;;;;;6256119;23;20409;-82
2020/12/15 15:25:00;;;;;;;250.60;239.00;;;9.40;99.90;;;;;;6255754;22;20431;-82
2020/12/15 15:27:26;;;;;;;259.77;247.83;;;9.50;99.90;;;;;;6254259;23;20435;-82
2020/12/15 15:29:52;;;;;;;258.73;246.73;;;9.40;99.90;;;;;;6245903;23;20482;-82
2020/12/15 15:32:19;;;;;;;251.80;239.77;;;9.40;99.90;;;;;;6245831;23;20482;-82
2020/12/15 15:34:46;;;;;;;259.37;247.73;;;9.30;99.90;;;;;;6245735;23;20473;-82
2020/12/15 15:37:13;;;;;;;247.77;236.77;;;9.30;99.90;;;;;;6255545;23;20403;-81
2020/12/15 15:39:39;;;;;;;244.63;233.63;;;9.30;99.90;;;;;;6245657;23;20395;-82
2020/12/15 15:42:06;;;;;;;246.50;234.43;;;9.30;99.90;;;;;;6254307;23;20841;-81
2020/12/15 15:44:34;;;;;;;249.27;237.43;;;9.30;99.90;;;;;;6245496;23;20902;-83
2020/12/15 15:47:00;;;;;;;243.23;231.57;;;9.30;99.90;;;;;;6202404;23;20403;-82
2020/12/15 15:49:27;;;;;;;243.60;232.53;;;9.30;99.90;;;;;;6245490;23;20879;-81
2020/12/15 15:51:53;;;;;;;243.30;232.03;;;9.20;99.90;;;;;;6244938;23;20400;-82
2020/12/15 15:54:22;;;;;;;245.03;233.20;;;9.10;99.90;;;;;;6245312;23;20526;-82
2020/12/15 15:56:48;;;;;;;248.60;236.53;;;9.10;99.90;;;;;;6243929;23;20898;-82
2020/12/15 15:59:18;;;;;;;242.70;231.10;;;9.10;99.90;;;;;;6245504;23;20404;-82
2020/12/15 16:01:45;;;;;;;244.27;232.97;;;9.10;99.90;;;;;;6245639;23;20426;-82
2020/12/15 16:04:11;;;;;;;251.23;239.27;;;9.00;99.90;;;;;;6255749;23;20415;-82
2020/12/15 16:06:37;;;;;;;232.48;220.68;;;9.00;99.90;;;;;;6244945;22;20419;-79
2020/12/15 16:09:28;;;;;;;241.63;229.70;;;8.90;99.90;;;;;;6245092;23;20160;-83
2020/12/15 16:11:56;;;;;;;248.60;236.60;;;8.90;99.90;;;;;;6243698;23;20494;-83
2020/12/15 16:14:23;;;;;;;254.70;241.67;;;8.80;99.90;;;;;;6256182;23;20458;-82
2020/12/15 16:16:50;;;;;;;248.00;235.70;;;8.70;99.90;;;;;;6247180;23;20496;-81
2020/12/15 16:19:17;;;;;;;250.93;238.40;;;8.70;99.90;;;;;;6247191;23;20404;-82
2020/12/15 16:21:43;;;;;;;249.30;237.17;;;8.70;99.90;;;;;;6246804;23;20427;-82
2020/12/15 16:24:09;;;;;;;253.17;240.97;;;8.60;99.90;;;;;;6247392;23;20427;-82
2020/12/15 16:26:36;;;;;;;254.30;241.97;;;8.60;99.90;;;;;;6245917;23;20404;-81
2020/12/15 16:29:03;;;;;;;261.57;249.47;;;8.60;99.90;;;;;;6247346;23;20711;-81
2020/12/15 16:31:41;;;;;;;257.00;245.07;;;8.60;99.90;;;;;;6247157;23;20479;-81
2020/12/15 16:34:08;;;;;;;254.43;241.67;;;8.70;99.90;;;;;;6256618;23;20892;-82
2020/12/15 16:36:34;;;;;;;245.50;233.70;;;8.70;99.90;;;;;;6257344;23;20906;-82
2020/12/15 16:39:00;;;;;;;249.47;236.77;;;8.70;99.90;;;;;;6257279;23;20446;-81
2020/12/15 16:41:27;;;;;;;259.00;247.00;;;8.70;99.90;;;;;;6245851;23;20734;-81
2020/12/15 16:43:53;;;;;;;266.23;253.07;;;8.80;99.90;;;;;;6256464;23;20435;-81
2020/12/15 16:46:20;;;;;;;275.13;262.27;;;8.90;99.90;;;;;;6247008;23;20440;-81
2020/12/15 16:48:50;;;;;;;285.63;272.07;;;9.00;99.90;;;;;;6246779;23;20435;-81
2020/12/15 16:51:17;;;;;;;282.40;268.60;;;9.00;99.90;;;;;;6246946;23;20457;-82
2020/12/15 16:53:45;;;;;;;281.23;267.47;;;9.10;99.90;;;;;;6246975;23;20427;-82
2020/12/15 16:56:12;;;;;;;285.97;271.17;;;9.20;99.90;;;;;;6255690;23;20438;-82
2020/12/15 16:58:40;;;;;;;275.77;262.27;;;9.00;99.90;;;;;;6246639;23;20427;-82
2020/12/15 17:01:07;;;;;;;262.60;250.70;;;9.00;99.90;;;;;;6243528;23;20415;-82
2020/12/15 17:03:33;;;;;;;260.43;247.93;;;8.90;99.90;;;;;;6245101;23;20399;-81
2020/12/15 17:06:07;;;;;;;253.47;241.57;;;8.90;99.90;;;;;;6243979;22;20435;-81
2020/12/15 17:08:51;;;;;;;254.40;243.00;;;8.70;99.90;;;;;;6245103;23;20395;-82
2020/12/15 17:11:22;;;;;;;256.83;244.17;;;8.70;99.90;;;;;;6243380;23;20404;-81
2020/12/15 17:13:48;;;;;;;254.33;242.50;;;8.60;99.90;;;;;;6244824;23;20432;-82
2020/12/15 17:16:22;;;;;;;256.60;243.63;;;8.50;99.90;;;;;;6255030;23;20735;-82
2020/12/15 17:18:49;;;;;;;254.13;242.37;;;8.50;99.90;;;;;;6246859;23;20395;-82